createdAt,value
2018-06-03T00:02:23.137Z,63.90
2018-06-03T00:04:52.824Z,64.40
2018-06-03T00:07:22.703Z,64.60
2018-06-03T00:09:50.442Z,64.90
2018-06-03T00:12:18.239Z,65.50
2018-06-03T00:14:46.292Z,65.90
2018-06-03T00:17:14.308Z,65.90
2018-06-03T00:19:41.944Z,65.60
2018-06-03T00:22:29.388Z,65.80
2018-06-03T00:24:58.678Z,66.40
2018-06-03T00:27:27.292Z,66.50
2018-06-03T00:29:57.697Z,67.20
2018-06-03T00:32:26.910Z,67.70
2018-06-03T00:34:55.611Z,68.30
2018-06-03T00:37:23.882Z,68.90
2018-06-03T00:39:52.166Z,69.40
2018-06-03T00:42:22.427Z,69.90
2018-06-03T00:44:50.927Z,70.80
2018-06-03T00:47:19.758Z,71.40
2018-06-03T00:49:48.318Z,72.40
2018-06-03T00:52:17.309Z,71.90
2018-06-03T00:54:45.648Z,72.00
2018-06-03T00:57:13.949Z,72.50
2018-06-03T00:59:43.306Z,72.20
2018-06-03T01:02:12.494Z,72.40
2018-06-03T01:04:41.249Z,72.40
2018-06-03T01:07:10.371Z,72.40
2018-06-03T01:09:40.126Z,72.40
2018-06-03T01:12:08.275Z,72.00
2018-06-03T01:14:36.899Z,71.20
2018-06-03T01:17:05.140Z,71.00
2018-06-03T01:19:33.016Z,71.80
2018-06-03T01:22:03.334Z,70.50
2018-06-03T01:24:32.081Z,70.00
2018-06-03T01:27:00.699Z,69.80
2018-06-03T01:29:30.512Z,69.50
2018-06-03T01:31:59.051Z,69.10
2018-06-03T01:34:28.413Z,68.30
2018-06-03T01:36:56.796Z,68.20
2018-06-03T01:39:24.468Z,68.20
2018-06-03T01:41:53.310Z,67.50
2018-06-03T01:44:21.611Z,67.00
2018-06-03T01:46:50.484Z,67.00
2018-06-03T01:49:21.059Z,66.20
2018-06-03T01:51:48.755Z,65.70
2018-06-03T01:54:16.703Z,65.50
2018-06-03T01:56:44.418Z,65.20
2018-06-03T01:59:14.575Z,65.40
2018-06-03T02:01:44.037Z,65.60
2018-06-03T02:04:13.534Z,65.70
2018-06-03T02:06:42.498Z,65.00
2018-06-03T02:09:10.682Z,64.70
2018-06-03T02:11:38.433Z,64.70
2018-06-03T02:14:06.252Z,65.10
2018-06-03T02:16:34.820Z,66.10
2018-06-03T02:19:03.320Z,66.70
2018-06-03T02:21:32.709Z,66.70
2018-06-03T02:24:01.529Z,68.10
2018-06-03T02:26:30.064Z,68.90
2018-06-03T02:28:58.769Z,68.10
2018-06-03T02:31:27.356Z,68.70
2018-06-03T02:33:58.127Z,68.80
2018-06-03T02:36:27.888Z,69.00
2018-06-03T02:38:56.429Z,69.70
2018-06-03T02:41:24.283Z,69.70
2018-06-03T02:43:52.747Z,69.80
2018-06-03T02:46:21.262Z,70.20
2018-06-03T02:48:48.951Z,70.10
2018-06-03T02:51:17.714Z,70.40
2018-06-03T02:53:45.387Z,70.50
2018-06-03T02:56:13.159Z,70.80
2018-06-03T02:58:41.725Z,70.90
2018-06-03T03:01:10.186Z,71.10
2018-06-03T03:03:37.940Z,71.40
2018-06-03T03:06:06.067Z,72.30
2018-06-03T03:08:33.935Z,72.00
2018-06-03T03:11:03.414Z,72.40
2018-06-03T03:13:32.863Z,72.70
2018-06-03T03:16:00.602Z,73.00
2018-06-03T03:18:29.007Z,73.30
2018-06-03T03:20:56.678Z,73.50
2018-06-03T03:23:24.360Z,73.70
2018-06-03T03:25:52.868Z,73.90
2018-06-03T03:28:21.482Z,74.10
2018-06-03T03:30:49.200Z,75.00
2018-06-03T03:33:16.877Z,75.90
2018-06-03T03:35:45.386Z,75.30
2018-06-03T03:38:13.108Z,74.90
2018-06-03T03:40:41.347Z,74.30
2018-06-03T03:43:09.103Z,74.90
2018-06-03T03:45:36.807Z,74.50
2018-06-03T03:48:04.591Z,74.40
2018-06-03T03:50:32.658Z,74.80
2018-06-03T03:53:02.378Z,74.70
2018-06-03T03:55:30.120Z,73.80
2018-06-03T03:57:58.789Z,73.50
2018-06-03T04:00:26.546Z,74.00
2018-06-03T04:02:54.285Z,73.70
2018-06-03T04:05:21.966Z,74.00
2018-06-03T04:07:49.659Z,74.30
2018-06-03T04:10:17.365Z,73.70
2018-06-03T04:12:46.998Z,73.70
2018-06-03T04:15:14.747Z,74.30
2018-06-03T04:17:43.292Z,75.20
2018-06-03T04:20:11.032Z,75.20
2018-06-03T04:22:38.795Z,74.50
2018-06-03T04:25:06.435Z,74.20
2018-06-03T04:27:34.147Z,74.40
2018-06-03T04:30:01.932Z,74.30
2018-06-03T04:32:29.601Z,74.20
2018-06-03T04:34:57.332Z,74.30
2018-06-03T04:37:25.061Z,74.80
2018-06-03T04:39:52.805Z,74.20
2018-06-03T04:42:21.073Z,74.30
2018-06-03T04:44:48.854Z,74.20
2018-06-03T04:47:16.529Z,74.40
2018-06-03T04:49:44.758Z,74.40
2018-06-03T04:52:13.028Z,74.40
2018-06-03T04:54:40.849Z,75.10
2018-06-03T04:57:08.718Z,74.30
2018-06-03T04:59:37.226Z,74.60
2018-06-03T05:02:05.651Z,74.10
2018-06-03T05:04:34.909Z,76.10
2018-06-03T05:07:02.686Z,76.10
2018-06-03T05:09:33.213Z,74.80
2018-06-03T05:12:00.931Z,74.40
2018-06-03T05:14:29.466Z,74.00
2018-06-03T05:16:57.263Z,74.70
2018-06-03T05:19:25.126Z,72.90
2018-06-03T05:21:53.577Z,73.00
2018-06-03T05:24:22.292Z,72.80
2018-06-03T05:26:52.719Z,72.40
2018-06-03T05:29:20.514Z,73.10
2018-06-03T05:31:48.161Z,73.60
2018-06-03T05:34:17.474Z,72.80
2018-06-03T05:36:47.943Z,73.50
2018-06-03T05:39:15.717Z,74.00
2018-06-03T05:41:43.472Z,72.00
2018-06-03T05:44:11.143Z,71.60
2018-06-03T05:46:38.863Z,70.00
2018-06-03T05:49:06.522Z,69.50
2018-06-03T05:51:34.252Z,69.30
2018-06-03T05:54:02.557Z,69.30
2018-06-03T05:56:31.119Z,69.30
2018-06-03T05:58:58.779Z,69.40
2018-06-03T06:01:28.183Z,70.20
2018-06-03T06:03:57.482Z,70.20
2018-06-03T06:06:25.590Z,69.90
2018-06-03T06:08:53.756Z,69.40
2018-06-03T06:11:21.649Z,69.40
2018-06-03T06:13:50.653Z,69.60
2018-06-03T06:16:21.400Z,69.60
2018-06-03T06:18:49.066Z,68.50
2018-06-03T06:21:19.970Z,68.50
2018-06-03T06:23:47.686Z,68.50
2018-06-03T06:26:15.814Z,67.70
2018-06-03T06:28:44.394Z,68.30
2018-06-03T06:31:12.147Z,67.20
2018-06-03T06:33:39.795Z,67.30
2018-06-03T06:36:09.843Z,67.00
2018-06-03T06:38:39.379Z,67.10
2018-06-03T06:41:07.116Z,66.40
2018-06-03T06:43:38.879Z,65.90
2018-06-03T06:46:11.042Z,65.60
2018-06-03T06:48:45.134Z,64.60
2018-06-03T06:51:17.281Z,64.30
2018-06-03T06:53:54.260Z,63.80
2018-06-03T06:56:29.234Z,63.10
2018-06-03T06:59:01.283Z,62.80
2018-06-03T07:01:35.141Z,62.60
2018-06-03T07:04:06.846Z,61.60
2018-06-03T07:06:42.106Z,61.80
2018-06-03T07:09:13.676Z,61.00
2018-06-03T07:11:44.798Z,60.20
2018-06-03T07:14:15.602Z,58.90
2018-06-03T07:16:46.018Z,58.50
2018-06-03T07:19:30.512Z,56.10
2018-06-03T07:22:02.150Z,55.90
2018-06-03T07:24:31.201Z,55.10
2018-06-03T07:27:06.706Z,54.40
2018-06-03T07:29:38.331Z,54.40
2018-06-03T07:34:47.736Z,52.40
2018-06-03T07:37:27.341Z,52.10
2018-06-03T07:42:36.347Z,51.30
2018-06-03T07:45:11.207Z,51.50
2018-06-03T07:47:49.290Z,51.70
2018-06-03T07:50:18.467Z,52.10
2018-06-03T07:52:51.976Z,52.30
2018-06-03T07:55:37.090Z,54.10
2018-06-03T07:58:09.724Z,54.10
2018-06-03T08:00:40.615Z,54.20
2018-06-03T08:03:10.438Z,55.10
2018-06-03T08:05:40.661Z,55.60
2018-06-03T08:08:10.270Z,56.40
2018-06-03T08:10:38.081Z,56.50
2018-06-03T08:13:12.676Z,56.60
2018-06-03T08:15:43.843Z,56.70
2018-06-03T08:18:16.301Z,56.20
2018-06-03T08:20:44.302Z,57.20
2018-06-03T08:23:14.123Z,57.60
2018-06-03T08:25:44.108Z,57.70
2018-06-03T08:28:14.528Z,57.70
2018-06-03T08:30:42.258Z,57.70
2018-06-03T08:33:11.100Z,57.50
2018-06-03T08:35:41.636Z,57.20
2018-06-03T08:38:11.371Z,57.20
2018-06-03T08:40:44.487Z,57.40
2018-06-03T08:43:18.024Z,57.70
2018-06-03T08:45:59.752Z,57.80
2018-06-03T08:48:32.710Z,58.00
2018-06-03T08:51:03.776Z,57.10
2018-06-03T08:53:33.315Z,56.90
2018-06-03T08:56:04.479Z,56.50
2018-06-03T08:58:35.003Z,56.50
2018-06-03T09:01:07.222Z,55.50
2018-06-03T09:03:54.891Z,55.40
2018-06-03T09:06:27.255Z,54.70
2018-06-03T09:08:59.044Z,54.60
2018-06-03T09:11:32.236Z,54.80
2018-06-03T09:14:06.167Z,54.80
2018-06-03T09:16:41.586Z,55.50
2018-06-03T09:19:09.999Z,54.70
2018-06-03T09:21:46.123Z,53.90
2018-06-03T09:24:23.026Z,53.10
2018-06-03T09:26:53.210Z,53.30
2018-06-03T09:29:25.564Z,52.30
2018-06-03T09:31:59.365Z,51.30
2018-06-03T09:34:29.921Z,50.90
2018-06-03T09:36:59.888Z,49.70
2018-06-03T09:39:45.809Z,49.70
2018-06-03T09:42:18.703Z,48.30
2018-06-03T09:44:48.556Z,48.10
2018-06-03T09:47:21.992Z,49.30
2018-06-03T09:52:44.567Z,49.20
2018-06-03T09:55:19.132Z,48.70
2018-06-03T09:57:56.924Z,48.70
2018-06-03T10:00:30.073Z,48.00
2018-06-03T10:03:02.542Z,47.70
2018-06-03T10:11:35.105Z,45.80
2018-06-03T10:14:12.600Z,45.30
2018-06-03T10:16:54.409Z,44.40
2018-06-03T10:22:14.616Z,41.50
2018-06-03T10:24:53.344Z,40.50
2018-06-03T10:27:41.886Z,40.10
2018-06-03T10:30:39.244Z,39.40
2018-06-03T10:33:24.227Z,38.10
2018-06-03T10:36:08.157Z,37.20
2018-06-03T10:38:44.714Z,37.20
2018-06-03T10:41:25.858Z,35.60
2018-06-03T10:44:14.255Z,35.60
2018-06-03T10:46:47.352Z,36.10
2018-06-03T10:55:54.629Z,33.60
2018-06-03T10:58:28.804Z,34.40
2018-06-03T11:01:15.627Z,35.00
2018-06-03T11:03:47.753Z,35.20
2018-06-03T11:06:40.474Z,33.30
2018-06-03T11:09:11.071Z,34.30
2018-06-03T11:11:44.898Z,34.70
2018-06-03T11:14:19.129Z,35.90
2018-06-03T11:16:48.789Z,35.90
2018-06-03T11:19:25.046Z,34.80
2018-06-03T11:22:09.735Z,34.80
2018-06-03T11:24:43.306Z,34.80
2018-06-03T11:27:25.203Z,33.70
2018-06-03T11:35:19.880Z,33.50
2018-06-03T11:37:55.667Z,32.40
2018-06-03T11:40:49.867Z,30.80
2018-06-03T11:43:33.541Z,30.90
2018-06-03T11:46:08.481Z,29.40
2018-06-03T11:51:30.336Z,29.10
2018-06-03T11:54:10.112Z,29.30
2018-06-03T11:56:53.097Z,29.80
2018-06-03T11:59:35.835Z,29.30
2018-06-03T12:02:09.092Z,29.70
2018-06-03T12:04:42.736Z,29.70
2018-06-03T12:07:25.570Z,29.80
2018-06-03T12:09:57.797Z,31.20
2018-06-03T12:12:32.952Z,30.90
2018-06-03T12:15:09.056Z,32.50
2018-06-03T12:17:43.208Z,32.00
2018-06-03T12:20:22.285Z,31.80
2018-06-03T12:23:14.937Z,31.20
2018-06-03T12:25:52.586Z,31.00
2018-06-03T12:43:48.062Z,30.50
2018-06-03T12:46:19.186Z,32.80
2018-06-03T12:48:55.664Z,33.10
2018-06-03T12:54:28.675Z,33.50
2018-06-03T12:57:00.657Z,33.70
2018-06-03T12:59:33.113Z,33.70
2018-06-03T13:02:10.554Z,33.60
2018-06-03T13:04:43.350Z,33.40
2018-06-03T13:13:40.409Z,36.20
2018-06-03T13:16:29.156Z,36.60
2018-06-03T13:22:23.128Z,39.10
2018-06-03T13:28:13.370Z,40.60
2018-06-03T13:31:10.528Z,41.20
2018-06-03T13:33:48.528Z,42.00
2018-06-03T13:43:43.409Z,42.00
2018-06-03T13:46:23.116Z,42.00
2018-06-03T13:49:04.318Z,42.30
2018-06-03T13:54:28.844Z,42.00
2018-06-03T14:03:52.172Z,42.50
2018-06-03T14:06:46.122Z,40.10
2018-06-03T14:12:05.931Z,41.10
2018-06-03T14:20:05.370Z,37.70
2018-06-03T14:22:35.564Z,37.60
2018-06-03T14:25:09.911Z,37.90
2018-06-03T14:27:54.428Z,39.70
2018-06-03T14:33:37.736Z,39.90
2018-06-03T14:36:14.462Z,37.20
2018-06-03T14:38:59.285Z,37.40
2018-06-03T14:41:27.638Z,37.50
2018-06-03T14:47:25.776Z,38.10
2018-06-03T14:52:34.596Z,40.50
2018-06-03T14:55:09.541Z,41.30
2018-06-03T15:00:13.187Z,42.00
2018-06-03T15:02:48.503Z,43.30
2018-06-03T15:05:19.865Z,43.60
2018-06-03T15:07:49.311Z,43.50
2018-06-03T15:10:18.570Z,40.90
2018-06-03T15:12:49.790Z,42.30
2018-06-03T15:15:27.623Z,43.40
2018-06-03T15:17:56.595Z,44.50
2018-06-03T15:20:25.312Z,44.50
2018-06-03T15:22:54.616Z,44.00
2018-06-03T15:25:26.215Z,41.90
2018-06-03T15:27:59.353Z,43.50
2018-06-03T15:30:36.011Z,40.10
2018-06-03T15:33:08.805Z,40.10
2018-06-03T15:35:38.953Z,40.00
2018-06-03T15:38:08.643Z,41.00
2018-06-03T15:40:37.784Z,40.40
2018-06-03T15:43:05.512Z,39.80
2018-06-03T15:45:37.679Z,39.50
2018-06-03T15:48:16.422Z,38.60
2018-06-03T15:50:50.630Z,39.40
2018-06-03T15:53:23.959Z,40.30
2018-06-03T15:55:57.451Z,39.70
2018-06-03T16:01:10.660Z,40.60
2018-06-03T16:03:40.225Z,41.60
2018-06-03T16:06:13.302Z,41.60
2018-06-03T16:08:41.760Z,42.10
2018-06-03T16:11:16.404Z,41.00
2018-06-03T16:13:44.969Z,41.80
2018-06-03T16:16:13.873Z,42.50
2018-06-03T16:18:46.092Z,42.40
2018-06-03T16:21:28.805Z,42.70
2018-06-03T16:23:58.051Z,43.10
2018-06-03T16:26:28.872Z,43.20
2018-06-03T16:29:02.065Z,43.20
2018-06-03T16:31:35.063Z,42.90
2018-06-03T16:34:06.439Z,43.30
2018-06-03T16:36:38.184Z,43.30
2018-06-03T16:39:07.218Z,43.30
2018-06-03T16:41:35.269Z,43.40
2018-06-03T16:44:04.164Z,42.80
2018-06-03T16:46:33.637Z,43.10
2018-06-03T16:49:05.077Z,43.30
2018-06-03T16:51:37.343Z,42.80
2018-06-03T16:54:07.005Z,42.80
2018-06-03T16:56:36.809Z,43.40
2018-06-03T16:59:04.616Z,43.30
2018-06-03T17:01:34.627Z,43.30
2018-06-03T17:04:03.379Z,44.00
2018-06-03T17:06:36.673Z,46.20
2018-06-03T17:09:10.339Z,46.10
2018-06-03T17:11:40.497Z,46.40
2018-06-03T17:14:09.884Z,46.70
2018-06-03T17:19:12.159Z,47.10
2018-06-03T17:21:42.044Z,47.30
2018-06-03T17:24:14.382Z,47.40
2018-06-03T17:26:42.953Z,47.20
2018-06-03T17:29:14.607Z,47.40
2018-06-03T17:31:47.587Z,48.10
2018-06-03T17:34:28.749Z,48.10
2018-06-03T17:36:59.432Z,48.20
2018-06-03T17:42:47.247Z,48.70
2018-06-03T17:45:16.624Z,48.90
2018-06-03T17:47:44.359Z,48.90
2018-06-03T17:50:12.072Z,49.10
2018-06-03T17:52:39.778Z,49.60
2018-06-03T17:55:08.252Z,49.40
2018-06-03T17:57:35.947Z,49.40
2018-06-03T18:00:03.719Z,49.60
2018-06-03T18:02:31.422Z,49.40
2018-06-03T18:04:59.112Z,50.30
2018-06-03T18:07:26.836Z,49.60
2018-06-03T18:09:57.664Z,49.90
2018-06-03T18:12:29.496Z,50.20
2018-06-03T18:14:57.292Z,49.70
2018-06-03T18:17:25.193Z,50.20
2018-06-03T18:19:54.991Z,50.00
2018-06-03T18:22:24.810Z,50.00
2018-06-03T18:24:54.399Z,50.00
2018-06-03T18:27:23.738Z,50.20
2018-06-03T18:29:52.710Z,50.60
2018-06-03T18:32:21.624Z,50.80
2018-06-03T18:34:50.787Z,51.40
2018-06-03T18:37:19.886Z,51.40
2018-06-03T18:39:49.037Z,51.60
2018-06-03T18:42:18.147Z,52.20
2018-06-03T18:44:46.867Z,52.70
2018-06-03T18:47:15.772Z,53.00
2018-06-03T18:49:44.780Z,53.30
2018-06-03T18:52:13.989Z,53.70
2018-06-03T18:54:43.020Z,53.70
2018-06-03T18:57:12.305Z,53.80
2018-06-03T19:02:52.173Z,54.30
2018-06-03T19:05:21.236Z,54.70
2018-06-03T19:07:50.776Z,55.30
2018-06-03T19:10:20.634Z,55.30
2018-06-03T19:12:48.363Z,55.50
2018-06-03T19:15:16.050Z,55.80
2018-06-03T19:17:43.769Z,55.80
2018-06-03T19:20:12.734Z,55.60
2018-06-03T19:22:40.467Z,55.00
2018-06-03T19:25:08.187Z,55.20
2018-06-03T19:27:35.845Z,54.40
2018-06-03T19:30:03.627Z,54.00
2018-06-03T19:32:31.352Z,53.80
2018-06-03T19:34:59.795Z,54.20
2018-06-03T19:37:27.479Z,54.20
2018-06-03T19:39:55.174Z,54.30
2018-06-03T19:42:23.566Z,54.80
2018-06-03T19:44:51.395Z,54.80
2018-06-03T19:47:19.232Z,54.90
2018-06-03T19:49:46.902Z,55.20
2018-06-03T19:52:14.565Z,55.30
2018-06-03T19:54:42.195Z,55.50
2018-06-03T19:57:09.839Z,55.50
2018-06-03T19:59:38.497Z,55.70
2018-06-03T20:02:07.025Z,56.10
2018-06-03T20:04:42.702Z,56.00
2018-06-03T20:07:13.618Z,56.20
2018-06-03T20:09:41.429Z,56.40
2018-06-03T20:12:13.477Z,56.50
2018-06-03T20:14:41.158Z,57.10
2018-06-03T20:20:39.598Z,57.70
2018-06-03T20:23:15.507Z,57.40
2018-06-03T20:25:44.651Z,57.80
2018-06-03T20:28:16.603Z,57.50
2018-06-03T20:34:10.786Z,57.90
2018-06-03T20:36:58.770Z,57.90
2018-06-03T20:39:49.970Z,58.10
2018-06-03T20:42:35.785Z,58.10
2018-06-03T20:45:07.919Z,58.50
2018-06-03T20:47:37.174Z,58.50
2018-06-03T20:50:06.417Z,58.60
2018-06-03T20:52:37.226Z,59.00
2018-06-03T20:55:07.131Z,59.40
2018-06-03T20:57:36.478Z,59.30
2018-06-03T21:00:05.649Z,59.60
2018-06-03T21:02:35.696Z,60.20
2018-06-03T21:05:04.966Z,60.20
2018-06-03T21:07:34.348Z,61.20
2018-06-03T21:10:03.492Z,60.90
2018-06-03T21:12:32.624Z,61.50
2018-06-03T21:15:01.652Z,61.90
2018-06-03T21:17:29.926Z,61.90
2018-06-03T21:19:59.211Z,62.40
2018-06-03T21:22:28.386Z,62.80
2018-06-03T21:24:57.491Z,63.50
2018-06-03T21:27:26.728Z,62.80
2018-06-03T21:29:56.074Z,62.90
2018-06-03T21:32:25.205Z,63.10
2018-06-03T21:34:54.248Z,63.30
2018-06-03T21:37:23.281Z,64.00
2018-06-03T21:39:52.241Z,64.60
2018-06-03T21:42:21.462Z,63.70
2018-06-03T21:44:50.711Z,64.40
2018-06-03T21:47:20.329Z,65.30
2018-06-03T21:49:49.502Z,65.30
2018-06-03T21:52:19.467Z,66.10
2018-06-03T21:54:48.591Z,66.00
2018-06-03T21:57:18.438Z,66.40
2018-06-03T21:59:47.449Z,66.40
2018-06-03T22:02:16.455Z,65.50
2018-06-03T22:04:45.572Z,65.70
2018-06-03T22:07:14.586Z,66.20
2018-06-03T22:09:43.755Z,66.60
2018-06-03T22:12:13.050Z,66.70
2018-06-03T22:14:42.194Z,66.30
2018-06-03T22:17:11.296Z,66.70
2018-06-03T22:19:41.236Z,66.30
2018-06-03T22:22:10.442Z,66.30
2018-06-03T22:24:38.277Z,67.20
2018-06-03T22:27:06.820Z,66.70
2018-06-03T22:29:34.595Z,66.60
2018-06-03T22:32:02.370Z,67.50
2018-06-03T22:34:30.834Z,68.50
2018-06-03T22:36:58.618Z,68.50
2018-06-03T22:39:26.408Z,67.60
2018-06-03T22:41:54.936Z,68.40
2018-06-03T22:44:22.696Z,68.40
2018-06-03T22:46:50.443Z,68.30
2018-06-03T22:49:18.194Z,68.50
2018-06-03T22:51:45.942Z,69.00
2018-06-03T22:54:13.698Z,69.00
2018-06-03T22:56:41.517Z,68.90
2018-06-03T22:59:09.295Z,69.70
2018-06-03T23:01:37.104Z,68.90
2018-06-03T23:04:05.747Z,69.40
2018-06-03T23:06:35.583Z,68.80
2018-06-03T23:09:03.378Z,68.90
2018-06-03T23:11:31.111Z,69.50
2018-06-03T23:13:58.839Z,69.40
2018-06-03T23:16:26.716Z,70.00
2018-06-03T23:18:54.434Z,69.50
2018-06-03T23:21:22.193Z,69.50
2018-06-03T23:23:50.693Z,69.70
2018-06-03T23:26:18.427Z,69.70
2018-06-03T23:28:46.938Z,70.50
2018-06-03T23:31:14.688Z,70.50
2018-06-03T23:33:43.179Z,71.00
2018-06-03T23:36:10.914Z,71.00
2018-06-03T23:38:38.668Z,70.40
2018-06-03T23:41:06.377Z,71.50
2018-06-03T23:43:34.152Z,71.20
2018-06-03T23:46:02.123Z,71.00
2018-06-03T23:48:29.900Z,71.20
2018-06-03T23:50:57.848Z,69.80
2018-06-03T23:53:25.634Z,70.10
2018-06-03T23:55:53.394Z,69.60
2018-06-03T23:58:21.239Z,69.20
